Time;durP1;ratioP1;P1;durP2;ratioP2;P2;SDS_P1;SDS_P2;PMS_P1;PMS_P2;Temp;Humidity;BMP_temperature;BMP_pressure;BME280_temperature;BME280_humidity;BME280_pressure;Samples;Min_cycle;Max_cycle;Signal;HPM_P1;HPM_P2
2024/03/30 00:02:22;;;;;;;4.22;2.20;;;;;;;9.69;100.00;99558.84;5046496;28;20020;-66
2024/03/30 00:04:47;;;;;;;5.65;2.30;;;;;;;9.65;100.00;99536.91;5043970;28;20035;-66
2024/03/30 00:07:13;;;;;;;3.60;2.10;;;;;;;9.65;100.00;99552.72;5043691;28;20036;-66
2024/03/30 00:09:38;;;;;;;3.78;2.10;;;;;;;9.64;100.00;99550.09;5040787;28;20068;-66
2024/03/30 00:12:03;;;;;;;5.97;2.10;;;;;;;9.64;100.00;99555.38;5045170;28;20441;-66
2024/03/30 00:14:29;;;;;;;4.68;2.20;;;;;;;9.64;100.00;99544.81;5041511;28;20500;-66
2024/03/30 00:16:54;;;;;;;5.97;2.10;;;;;;;9.62;100.00;99547.50;5044572;28;20090;-67
2024/03/30 00:19:19;;;;;;;3.25;2.00;;;;;;;9.64;100.00;99545.72;5041447;28;20036;-66
2024/03/30 00:21:45;;;;;;;4.97;2.03;;;;;;;9.60;100.00;99544.88;5042803;28;20108;-66
2024/03/30 00:24:10;;;;;;;4.13;2.00;;;;;;;9.58;100.00;99536.13;5043771;28;20064;-70
2024/03/30 00:26:35;;;;;;;5.35;2.20;;;;;;;9.57;100.00;99533.50;5040432;28;20100;-70
2024/03/30 00:29:01;;;;;;;3.75;2.13;;;;;;;9.53;100.00;99515.94;5044354;28;20032;-66
2024/03/30 00:31:27;;;;;;;3.85;2.00;;;;;;;9.52;100.00;99519.47;5041143;28;20123;-66
2024/03/30 00:33:53;;;;;;;5.85;2.10;;;;;;;9.50;100.00;99518.63;5043717;28;20033;-67
2024/03/30 00:36:18;;;;;;;4.93;2.00;;;;;;;9.47;100.00;99506.34;5042210;28;20086;-70
2024/03/30 00:38:45;;;;;;;3.17;2.00;;;;;;;9.44;100.00;99498.47;5042542;28;20030;-72
2024/03/30 00:41:11;;;;;;;4.40;2.10;;;;;;;9.42;100.00;99498.50;5043361;28;20057;-72
2024/03/30 00:43:36;;;;;;;3.35;2.00;;;;;;;9.41;100.00;99493.25;5040831;28;20056;-69
2024/03/30 00:46:02;;;;;;;3.97;2.10;;;;;;;9.40;100.00;99495.00;5040963;28;20113;-66
2024/03/30 00:48:27;;;;;;;3.60;2.00;;;;;;;9.39;100.00;99503.81;5044293;28;20060;-65
2024/03/30 00:50:53;;;;;;;2.97;1.90;;;;;;;9.38;100.00;99502.06;5041570;28;20025;-66
2024/03/30 00:53:18;;;;;;;4.03;1.92;;;;;;;9.39;100.00;99484.47;5042976;28;20030;-69
2024/03/30 00:55:43;;;;;;;3.58;1.98;;;;;;;9.35;100.00;99478.38;5040281;28;20068;-65
2024/03/30 00:58:08;;;;;;;4.18;1.98;;;;;;;9.34;100.00;99473.09;5043502;28;20048;-66
2024/03/30 01:00:34;;;;;;;3.53;1.83;;;;;;;9.31;100.00;99459.97;5041564;28;20032;-66
2024/03/30 01:02:59;;;;;;;2.30;1.90;;;;;;;9.28;100.00;99471.41;5043676;28;20029;-67
2024/03/30 01:05:24;;;;;;;4.20;1.90;;;;;;;9.27;100.00;99463.53;5042049;28;20033;-80
2024/03/30 01:07:50;;;;;;;4.15;1.80;;;;;;;9.24;100.00;99467.94;5043234;28;20040;-77
2024/03/30 01:10:16;;;;;;;4.13;2.00;;;;;;;9.23;100.00;99458.28;5042626;28;20403;-72
2024/03/30 01:12:43;;;;;;;3.17;2.00;;;;;;;9.21;100.00;99452.16;5041995;28;20029;-75
2024/03/30 01:15:09;;;;;;;5.60;2.00;;;;;;;9.20;100.00;99446.91;5043485;28;20036;-73
2024/03/30 01:17:35;;;;;;;5.88;2.10;;;;;;;9.18;100.00;99451.31;5040630;28;20026;-72
2024/03/30 01:20:07;;;;;;;4.80;2.10;;;;;;;9.20;100.00;99454.81;5044334;28;20033;-68
2024/03/30 01:22:33;;;;;;;3.05;1.95;;;;;;;9.21;100.00;99451.28;5037277;28;20376;-65
2024/03/30 01:24:59;;;;;;;5.82;2.15;;;;;;;9.21;100.00;99454.78;5044066;28;20391;-75
2024/03/30 01:27:26;;;;;;;7.55;2.20;;;;;;;9.24;100.00;99459.16;5041723;28;20033;-80
2024/03/30 01:29:54;;;;;;;5.40;2.15;;;;;;;9.24;100.00;99457.38;5043245;28;20080;-74
2024/03/30 01:32:20;;;;;;;6.10;2.30;;;;;;;9.25;100.00;99459.13;5042648;28;20036;-76
2024/03/30 01:34:46;;;;;;;5.22;2.00;;;;;;;9.19;100.00;99450.44;5043347;28;20029;-79
2024/03/30 01:37:11;;;;;;;5.15;2.20;;;;;;;9.23;100.00;99454.75;5040854;28;20099;-80
2024/03/30 01:39:36;;;;;;;6.20;2.30;;;;;;;9.22;100.00;99458.31;5044217;28;20033;-79
2024/03/30 01:42:02;;;;;;;7.13;2.20;;;;;;;9.22;100.00;99459.19;5042225;28;20086;-79
2024/03/30 01:44:27;;;;;;;7.07;2.15;;;;;;;9.21;100.00;99469.75;5047229;28;20029;-66
2024/03/30 01:46:53;;;;;;;7.72;2.40;;;;;;;9.15;100.00;99461.91;5043373;28;20076;-71
2024/03/30 01:49:20;;;;;;;6.28;2.25;;;;;;;9.04;100.00;99457.63;5045966;28;20098;-70
2024/03/30 01:51:47;;;;;;;4.88;2.20;;;;;;;8.96;100.00;99443.66;5048081;28;20099;-67
2024/03/30 01:54:14;;;;;;;6.53;2.20;;;;;;;8.96;100.00;99432.25;5045379;28;20100;-70
2024/03/30 01:56:41;;;;;;;5.28;2.30;;;;;;;8.98;100.00;99438.38;5046793;28;20090;-71
2024/03/30 01:59:06;;;;;;;5.35;2.20;;;;;;;8.95;100.00;99441.91;5042681;28;20041;-71
2024/03/30 02:01:32;;;;;;;4.95;2.15;;;;;;;8.99;100.00;99438.34;5047918;28;20504;-68
2024/03/30 02:03:59;;;;;;;5.68;2.30;;;;;;;8.98;100.00;99438.38;5047007;28;20037;-72
2024/03/30 02:06:29;;;;;;;6.45;2.33;;;;;;;8.97;100.00;99445.41;5044320;28;20362;-71
2024/03/30 02:08:56;;;;;;;7.10;2.40;;;;;;;8.94;100.00;99441.94;5045014;28;20033;-66
2024/03/30 02:11:21;;;;;;;7.30;2.38;;;;;;;8.85;100.00;99456.09;5044935;28;20029;-68
2024/03/30 02:13:47;;;;;;;5.97;2.33;;;;;;;8.85;100.00;99466.63;5045271;28;20048;-68
2024/03/30 02:16:13;;;;;;;7.68;2.33;;;;;;;8.79;100.00;99470.19;5045859;28;20035;-66
2024/03/30 02:18:39;;;;;;;7.90;2.42;;;;;;;8.75;100.00;99468.47;5044256;28;20555;-70
2024/03/30 02:21:04;;;;;;;8.02;2.42;;;;;;;8.80;100.00;99473.72;5046928;28;20107;-73
2024/03/30 02:23:30;;;;;;;5.60;2.22;;;;;;;8.77;100.00;99471.13;5039336;28;20065;-73
2024/03/30 02:25:59;;;;;;;7.07;2.40;;;;;;;8.78;100.00;99479.00;5046352;28;20060;-73
2024/03/30 02:28:27;;;;;;;7.18;2.50;;;;;;;8.81;100.00;99478.06;5044009;28;20100;-65
2024/03/30 02:30:53;;;;;;;8.32;2.60;;;;;;;8.83;100.00;99471.06;5045506;28;20522;-66
2024/03/30 02:33:18;;;;;;;6.55;2.53;;;;;;;8.78;100.00;99460.56;5044928;28;20083;-67
2024/03/30 02:35:44;;;;;;;7.68;2.50;;;;;;;8.79;100.00;99464.06;5044455;28;20057;-66
2024/03/30 02:38:09;;;;;;;7.32;2.47;;;;;;;8.83;100.00;99471.91;5045964;28;20044;-70
2024/03/30 02:40:37;;;;;;;9.13;2.60;;;;;;;8.86;100.00;99473.66;5043316;28;20422;-72
2024/03/30 02:43:03;;;;;;;6.38;2.50;;;;;;;8.79;100.00;99457.00;5039299;28;20038;-74
2024/03/30 02:45:28;;;;;;;6.35;2.50;;;;;;;8.80;100.00;99450.00;5045293;28;20067;-73
2024/03/30 02:47:54;;;;;;;6.72;2.60;;;;;;;8.70;100.00;99452.72;5044067;28;20447;-72
2024/03/30 02:50:19;;;;;;;6.82;2.65;;;;;;;8.70;100.00;99463.25;5044914;28;20030;-66
2024/03/30 02:52:44;;;;;;;6.47;2.65;;;;;;;8.72;100.00;99453.59;5044833;28;20033;-66
2024/03/30 02:55:10;;;;;;;9.13;2.85;;;;;;;8.70;100.00;99454.47;5043439;28;20473;-67
2024/03/30 02:57:35;;;;;;;8.25;2.70;;;;;;;8.72;100.00;99450.97;5046367;28;20025;-66
2024/03/30 03:00:00;;;;;;;8.95;2.92;;;;;;;8.72;100.00;99450.97;5042827;28;20030;-68
2024/03/30 03:02:26;;;;;;;7.28;2.80;;;;;;;8.72;100.00;99439.53;5045530;28;20036;-73
2024/03/30 03:04:51;;;;;;;7.30;2.88;;;;;;;8.70;100.00;99447.44;5044044;28;20068;-73
2024/03/30 03:07:17;;;;;;;9.07;2.85;;;;;;;8.70;100.00;99443.94;5044542;28;20068;-68
2024/03/30 03:09:42;;;;;;;8.45;3.10;;;;;;;8.65;100.00;99440.47;5044914;28;20447;-65
2024/03/30 03:12:08;;;;;;;7.07;3.00;;;;;;;8.62;100.00;99443.13;5041805;28;20037;-66
2024/03/30 03:14:33;;;;;;;7.07;3.00;;;;;;;8.58;100.00;99442.31;5046105;28;20028;-65
2024/03/30 03:16:58;;;;;;;7.05;3.00;;;;;;;8.59;100.00;99440.53;5041329;28;20049;-65
2024/03/30 03:19:24;;;;;;;7.38;3.10;;;;;;;8.61;100.00;99442.28;5045118;28;20029;-66
2024/03/30 03:21:49;;;;;;;7.35;3.13;;;;;;;8.59;100.00;99444.06;5042043;28;20415;-73
2024/03/30 03:24:15;;;;;;;8.95;3.40;;;;;;;8.61;100.00;99450.19;5044478;28;20437;-70
2024/03/30 03:26:40;;;;;;;9.27;3.60;;;;;;;8.58;100.00;99441.41;5043290;28;20041;-69
2024/03/30 03:29:06;;;;;;;8.35;3.70;;;;;;;8.53;100.00;99436.19;5045535;28;20032;-77
2024/03/30 03:31:31;;;;;;;11.73;4.00;;;;;;;8.56;100.00;99441.44;5042731;28;20025;-77
2024/03/30 03:33:56;;;;;;;11.68;4.13;;;;;;;8.57;100.00;99434.44;5046081;28;20025;-77
2024/03/30 03:36:22;;;;;;;13.70;4.63;;;;;;;8.55;100.00;99429.19;5044798;28;20033;-76
2024/03/30 03:38:47;;;;;;;11.45;4.63;;;;;;;8.54;100.00;99417.75;5043580;28;20095;-78
2024/03/30 03:41:13;;;;;;;12.30;4.78;;;;;;;8.54;100.00;99428.28;5044168;28;20033;-76
2024/03/30 03:43:40;;;;;;;13.02;4.57;;;;;;;8.51;100.00;99423.06;5040997;28;20117;-76
2024/03/30 03:46:05;;;;;;;12.40;4.40;;;;;;;8.54;100.00;99423.00;5045350;28;20041;-73
2024/03/30 03:48:31;;;;;;;12.93;4.70;;;;;;;8.51;100.00;99419.56;5038619;28;20075;-66
2024/03/30 03:50:56;;;;;;;10.98;4.30;;;;;;;8.52;100.00;99416.03;5045061;28;20099;-66
2024/03/30 03:53:21;;;;;;;12.35;4.80;;;;;;;8.50;100.00;99415.16;5043357;28;20025;-71
2024/03/30 03:55:47;;;;;;;14.30;5.20;;;;;;;8.50;100.00;99417.78;5043950;28;20029;-73
2024/03/30 03:58:12;;;;;;;13.20;5.03;;;;;;;8.45;100.00;99417.84;5044627;28;20075;-70
2024/03/30 04:00:37;;;;;;;13.27;5.00;;;;;;;8.49;100.00;99419.56;5042208;28;20089;-69
2024/03/30 04:03:05;;;;;;;11.15;4.40;;;;;;;8.52;100.00;99418.69;5042029;28;20548;-69
2024/03/30 04:05:31;;;;;;;11.02;4.22;;;;;;;8.52;100.00;99413.41;5043532;28;20379;-69
2024/03/30 04:07:56;;;;;;;9.32;4.10;;;;;;;8.49;100.00;99413.41;5042400;28;20046;-66
2024/03/30 04:10:21;;;;;;;8.85;4.10;;;;;;;8.46;100.00;99423.97;5043732;28;20040;-66
2024/03/30 04:12:48;;;;;;;11.63;4.20;;;;;;;8.41;100.00;99425.78;5041011;28;20038;-70
2024/03/30 04:15:13;;;;;;;9.23;3.90;;;;;;;8.35;100.00;99409.13;5044121;28;20059;-73
2024/03/30 04:17:38;;;;;;;11.38;4.45;;;;;;;8.37;100.00;99412.63;5041890;28;20118;-67
2024/03/30 04:20:05;;;;;;;11.63;4.40;;;;;;;8.34;100.00;99419.66;5044997;28;20032;-69
2024/03/30 04:22:30;;;;;;;10.38;4.32;;;;;;;8.39;100.00;99409.97;5041375;28;20033;-69
2024/03/30 04:24:55;;;;;;;12.15;4.50;;;;;;;8.35;100.00;99401.22;5043918;28;20036;-66
2024/03/30 04:27:21;;;;;;;10.90;4.43;;;;;;;8.32;100.00;99396.00;5042325;28;20074;-66
2024/03/30 04:29:46;;;;;;;13.25;4.65;;;;;;;8.29;100.00;99390.75;5042425;28;20073;-65
2024/03/30 04:32:11;;;;;;;12.35;4.90;;;;;;;8.27;100.00;99394.28;5043731;28;20033;-66
2024/03/30 04:34:37;;;;;;;13.98;5.25;;;;;;;8.26;100.00;99396.06;5041088;28;20031;-68
2024/03/30 04:37:03;;;;;;;14.27;5.40;;;;;;;8.25;100.00;99389.03;5044702;28;20056;-69
2024/03/30 04:39:28;;;;;;;15.80;5.88;;;;;;;8.25;100.00;99383.78;5041198;28;20030;-71
2024/03/30 04:41:54;;;;;;;16.15;6.20;;;;;;;8.22;100.00;99378.53;5043305;28;20025;-71
2024/03/30 04:44:19;;;;;;;17.60;6.65;;;;;;;8.24;100.00;99371.47;5041516;28;20108;-66
2024/03/30 04:46:44;;;;;;;17.00;6.65;;;;;;;8.25;100.00;99367.97;5042110;28;20112;-66
2024/03/30 04:49:09;;;;;;;17.33;7.05;;;;;;;8.25;100.00;99373.25;5043973;28;20029;-66
2024/03/30 04:51:35;;;;;;;18.83;7.57;;;;;;;8.28;100.00;99362.69;5040762;28;20032;-66
2024/03/30 04:54:00;;;;;;;18.48;7.63;;;;;;;8.29;100.00;99358.31;5043977;28;20032;-66
2024/03/30 04:56:26;;;;;;;18.63;8.43;;;;;;;8.28;100.00;99360.03;5041690;28;20037;-67
2024/03/30 04:58:51;;;;;;;18.73;8.60;;;;;;;8.29;100.00;99359.16;5042657;28;20025;-70
2024/03/30 05:01:16;;;;;;;18.85;8.80;;;;;;;8.31;100.00;99359.16;5042646;28;20059;-68
2024/03/30 05:03:42;;;;;;;18.92;9.18;;;;;;;8.31;100.00;99356.50;5041580;28;20121;-67
2024/03/30 05:06:08;;;;;;;19.10;9.43;;;;;;;8.30;100.00;99349.50;5044014;28;20021;-67
2024/03/30 05:08:33;;;;;;;19.73;9.80;;;;;;;8.33;100.00;99349.47;5040639;28;20030;-69
2024/03/30 05:11:00;;;;;;;20.52;10.50;;;;;;;8.30;100.00;99339.84;5043828;28;20029;-66
2024/03/30 05:13:25;;;;;;;20.25;10.82;;;;;;;8.28;100.00;99331.06;5041710;28;20040;-65
2024/03/30 05:15:51;;;;;;;20.33;10.88;;;;;;;8.28;100.00;99328.44;5043367;28;20372;-66
2024/03/30 05:18:18;;;;;;;20.70;11.07;;;;;;;8.27;100.00;99334.63;5046832;28;20025;-68
2024/03/30 05:20:50;;;;;;;20.65;10.95;;;;;;;8.27;100.00;99334.63;5045430;28;20395;-71
2024/03/30 05:23:16;;;;;;;20.95;11.20;;;;;;;8.26;100.00;99322.34;5046958;28;20044;-65
2024/03/30 05:25:41;;;;;;;20.17;10.77;;;;;;;8.25;100.00;99323.22;5045317;28;20033;-66
2024/03/30 05:28:07;;;;;;;19.55;9.88;;;;;;;8.24;100.00;99329.34;5047537;28;20036;-76
2024/03/30 05:30:32;;;;;;;20.55;11.00;;;;;;;8.23;100.00;99317.09;5045499;28;20144;-76
2024/03/30 05:32:57;;;;;;;20.30;10.60;;;;;;;8.24;100.00;99313.56;5047493;28;20171;-77
2024/03/30 05:35:23;;;;;;;20.33;10.60;;;;;;;8.22;100.00;99306.59;5047008;28;20086;-78
2024/03/30 05:37:48;;;;;;;20.63;10.90;;;;;;;8.22;100.00;99311.84;5047808;28;20022;-78
2024/03/30 05:40:13;;;;;;;20.23;10.65;;;;;;;8.22;100.00;99310.09;5048517;28;20029;-73
2024/03/30 05:42:39;;;;;;;20.02;10.95;;;;;;;8.26;100.00;99310.94;5045862;28;20029;-77
2024/03/30 05:45:05;;;;;;;20.70;10.57;;;;;;;8.32;100.00;99314.38;5048341;28;20025;-77
2024/03/30 05:47:31;;;;;;;20.33;10.60;;;;;;;8.32;100.00;99300.34;5045474;28;20121;-77
2024/03/30 05:49:56;;;;;;;20.58;10.77;;;;;;;8.31;100.00;99285.44;5048115;28;20025;-66
2024/03/30 05:52:21;;;;;;;20.63;11.02;;;;;;;8.32;100.00;99288.03;5050473;28;20037;-67
2024/03/30 05:54:46;;;;;;;20.48;10.85;;;;;;;8.33;100.00;99292.41;5045819;28;20040;-68
2024/03/30 05:57:12;;;;;;;21.27;11.57;;;;;;;8.33;100.00;99296.78;5045596;28;20526;-66
2024/03/30 05:59:40;;;;;;;21.60;11.50;;;;;;;8.34;100.00;99306.44;5044156;28;20030;-73
2024/03/30 06:02:06;;;;;;;21.02;11.57;;;;;;;8.32;100.00;99301.19;5047414;28;20083;-66
2024/03/30 06:04:31;;;;;;;21.08;11.65;;;;;;;8.33;100.00;99287.16;5044223;28;20034;-70
2024/03/30 06:06:57;;;;;;;20.75;11.70;;;;;;;8.37;100.00;99293.25;5046988;28;20371;-70
2024/03/30 06:09:23;;;;;;;20.92;11.70;;;;;;;8.40;100.00;99292.34;5045207;28;20471;-77
2024/03/30 06:11:48;;;;;;;21.02;11.70;;;;;;;8.42;100.00;99296.72;5045386;28;20033;-72
2024/03/30 06:14:13;;;;;;;20.63;11.88;;;;;;;8.47;100.00;99296.69;5046948;28;20032;-72
2024/03/30 06:16:39;;;;;;;21.65;12.15;;;;;;;8.51;100.00;99301.91;5044084;28;20021;-68
2024/03/30 06:19:04;;;;;;;21.20;11.63;;;;;;;8.53;100.00;99307.16;5051580;28;20087;-75
2024/03/30 06:21:30;;;;;;;21.58;11.70;;;;;;;8.58;100.00;99307.97;5044508;28;20044;-74
2024/03/30 06:23:55;;;;;;;20.95;11.35;;;;;;;8.60;100.00;99315.84;5044946;28;20037;-67
2024/03/30 06:26:20;;;;;;;21.25;11.95;;;;;;;8.59;100.00;99315.00;5045439;28;20116;-75
2024/03/30 06:28:46;;;;;;;21.13;11.10;;;;;;;8.59;100.00;99314.09;5043874;28;20037;-68
2024/03/30 06:31:12;;;;;;;21.73;11.60;;;;;;;8.65;100.00;99317.56;5046112;28;20056;-66
2024/03/30 06:33:37;;;;;;;21.20;11.70;;;;;;;8.66;100.00;99316.63;5043783;28;20034;-69
2024/03/30 06:36:03;;;;;;;20.92;11.30;;;;;;;8.68;100.00;99312.25;5046902;28;20445;-65
2024/03/30 06:38:28;;;;;;;20.38;10.88;;;;;;;8.76;100.00;99311.28;5043876;28;20457;-66
2024/03/30 06:43:44;;;;;;;20.00;10.48;;;;;;;8.87;100.00;99309.38;5036665;28;20511;-73
2024/03/30 06:46:10;;;;;;;19.90;10.43;;;;;;;8.87;100.00;99304.09;5036838;28;20048;-77
2024/03/30 06:48:35;;;;;;;19.60;10.05;;;;;;;8.93;100.00;99298.75;5041944;28;20468;-77
2024/03/30 06:51:01;;;;;;;19.77;9.65;;;;;;;8.92;100.00;99301.41;5043562;28;20036;-77
2024/03/30 06:53:26;;;;;;;19.65;9.82;;;;;;;8.96;100.00;99293.44;5046045;28;20049;-74
2024/03/30 06:55:54;;;;;;;20.20;10.07;;;;;;;8.96;100.00;99297.84;5044531;28;20142;-76
2024/03/30 06:58:19;;;;;;;20.90;10.77;;;;;;;9.00;100.00;99299.53;5044839;28;20033;-75
2024/03/30 07:00:46;;;;;;;20.42;10.45;;;;;;;9.01;100.00;99291.63;5045563;28;20163;-69
2024/03/30 07:03:12;;;;;;;20.48;10.55;;;;;;;9.02;100.00;99292.47;5043517;28;20029;-73
2024/03/30 07:05:37;;;;;;;20.45;10.52;;;;;;;9.03;100.00;99291.59;5045219;28;20028;-68
2024/03/30 07:08:03;;;;;;;20.17;10.07;;;;;;;9.05;100.00;99287.16;5042699;28;20052;-76
2024/03/30 07:10:28;;;;;;;21.08;10.57;;;;;;;9.01;100.00;99291.63;5045670;28;20036;-70
2024/03/30 07:12:56;;;;;;;22.60;11.68;;;;;;;9.00;100.00;99283.69;5045154;28;20033;-75
2024/03/30 07:15:22;;;;;;;20.98;11.10;;;;;;;9.00;100.00;99289.88;5045180;28;20029;-69
2024/03/30 07:17:48;;;;;;;21.50;11.88;;;;;;;8.99;100.00;99289.88;5045388;28;20071;-68
2024/03/30 07:20:14;;;;;;;22.70;12.52;;;;;;;8.97;100.00;99279.38;5043915;28;20021;-66
2024/03/30 07:22:39;;;;;;;21.80;12.40;;;;;;;9.01;100.00;99288.97;5045993;28;20051;-68
2024/03/30 07:25:05;;;;;;;21.55;11.73;;;;;;;8.99;100.00;99274.94;5041382;28;20033;-69
2024/03/30 07:27:30;;;;;;;23.05;12.63;;;;;;;9.02;100.00;99277.53;5045578;28;20029;-68
2024/03/30 07:29:56;;;;;;;22.45;13.00;;;;;;;9.02;100.00;99280.16;5043011;28;20140;-66
2024/03/30 07:32:22;;;;;;;22.75;12.68;;;;;;;9.12;100.00;99277.41;5043905;28;20029;-67
2024/03/30 07:34:48;;;;;;;22.50;12.88;;;;;;;9.15;100.00;99282.63;5044499;28;20368;-66
2024/03/30 07:37:14;;;;;;;23.40;14.07;;;;;;;9.21;100.00;99277.25;5043046;28;20040;-80
2024/03/30 07:39:40;;;;;;;22.15;13.13;;;;;;;9.18;100.00;99275.53;5044883;28;20029;-80
2024/03/30 07:42:07;;;;;;;22.90;13.82;;;;;;;9.20;100.00;99278.16;5041243;28;20468;-67
2024/03/30 07:44:32;;;;;;;23.20;13.90;;;;;;;9.18;100.00;99272.03;5045707;28;20051;-79
2024/03/30 07:46:58;;;;;;;24.30;14.85;;;;;;;9.33;100.00;99268.28;5043191;28;20041;-73
2024/03/30 07:49:23;;;;;;;24.63;15.27;;;;;;;9.49;100.00;99266.28;5044609;28;20029;-79
2024/03/30 07:51:49;;;;;;;24.30;15.18;;;;;;;9.63;100.00;99259.00;5043395;28;20029;-80
2024/03/30 07:54:14;;;;;;;23.88;14.45;;;;;;;9.81;100.00;99257.81;5042304;28;20051;-70
2024/03/30 07:56:40;;;;;;;23.80;14.93;;;;;;;9.96;100.00;99264.59;5042303;28;20087;-67
2024/03/30 07:59:05;;;;;;;23.63;14.55;;;;;;;10.04;100.00;99253.91;5045119;28;20017;-69
2024/03/30 08:01:40;;;;;;;24.65;14.82;;;;;;;10.20;100.00;99259.75;5070030;28;20927;-71
2024/03/30 08:04:06;;;;;;;23.33;14.35;;;;;;;10.29;100.00;99259.56;5058412;28;20029;-73
2024/03/30 08:06:31;;;;;;;24.35;15.43;;;;;;;10.33;100.00;99249.84;5059456;28;20482;-66
2024/03/30 08:08:56;;;;;;;24.92;15.23;;;;;;;10.42;100.00;99237.31;5059857;28;20033;-66
2024/03/30 08:11:22;;;;;;;24.42;14.90;;;;;;;10.41;100.00;99235.59;5059318;28;20029;-66
2024/03/30 08:13:47;;;;;;;24.42;15.20;;;;;;;10.45;100.00;99239.88;5060949;28;20055;-66
2024/03/30 08:16:12;;;;;;;24.23;15.52;;;;;;;10.56;100.00;99249.41;5058184;28;20518;-67
2024/03/30 08:18:40;;;;;;;24.25;15.60;;;;;;;10.51;100.00;99243.31;5054209;28;20488;-68
2024/03/30 08:21:05;;;;;;;25.17;16.15;;;;;;;10.36;100.00;99245.38;5059650;28;20388;-67
2024/03/30 08:23:31;;;;;;;25.33;16.00;;;;;;;10.46;100.00;99233.72;5059045;28;20021;-72
2024/03/30 08:25:56;;;;;;;24.08;15.75;;;;;;;10.74;100.00;99225.19;5059813;28;20431;-71
2024/03/30 08:28:22;;;;;;;24.25;15.38;;;;;;;10.91;100.00;99235.41;5060139;28;20041;-70
2024/03/30 08:30:49;;;;;;;24.73;16.10;;;;;;;10.91;100.00;99231.91;5058801;28;20040;-66
2024/03/30 08:33:15;;;;;;;24.75;16.20;;;;;;;10.93;100.00;99238.00;5060849;28;20476;-66
2024/03/30 08:35:50;;;;;;;25.15;16.75;;;;;;;10.91;100.00;99223.97;5057855;28;20026;-68
2024/03/30 08:38:15;;;;;;;26.42;16.80;;;;;;;11.09;100.00;99218.22;5055550;28;20380;-66
2024/03/30 08:40:41;;;;;;;25.23;15.82;;;;;;;11.09;100.00;99225.31;5061058;28;20039;-67
2024/03/30 08:43:06;;;;;;;25.42;16.45;;;;;;;10.99;100.00;99217.59;5058282;28;20032;-68
2024/03/30 08:45:31;;;;;;;25.52;16.70;;;;;;;11.04;100.00;99209.56;5059206;28;20041;-68
2024/03/30 08:47:57;;;;;;;24.63;16.55;;;;;;;11.20;100.00;99206.53;5059070;28;20074;-65
2024/03/30 08:50:22;;;;;;;25.00;16.88;;;;;;;11.37;100.00;99214.91;5058727;28;20033;-65
2024/03/30 08:52:47;;;;;;;25.40;15.95;;;;;;;11.45;100.00;99220.91;5060426;28;20032;-68
2024/03/30 08:55:13;;;;;;;24.00;15.77;;;;;;;11.43;100.00;99222.72;5057530;28;20060;-69
2024/03/30 08:57:38;;;;;;;24.88;16.50;;;;;;;11.40;100.00;99225.47;5060663;28;20060;-65
2024/03/30 09:00:08;;;;;;;24.30;16.55;;;;;;;11.44;100.00;99227.09;5057776;28;20136;-68
2024/03/30 09:02:35;;;;;;;24.65;16.02;;;;;;;11.52;100.00;99222.47;5059782;28;20500;-67
2024/03/30 09:05:00;;;;;;;24.17;15.48;;;;;;;11.53;100.00;99228.63;5057887;28;20032;-69
2024/03/30 09:07:26;;;;;;;23.65;15.35;;;;;;;11.60;100.00;99217.00;5057727;28;20037;-67
2024/03/30 09:09:51;;;;;;;24.95;15.93;;;;;;;11.68;100.00;99212.38;5059250;28;20036;-66
2024/03/30 09:12:16;;;;;;;24.48;16.17;;;;;;;11.81;100.00;99201.44;5048478;28;20064;-65
2024/03/30 09:14:42;;;;;;;24.17;15.68;;;;;;;11.90;100.00;99213.56;5046969;28;20051;-66
2024/03/30 09:17:07;;;;;;;23.95;15.13;;;;;;;11.82;100.00;99190.84;5043657;28;20555;-77
2024/03/30 09:19:32;;;;;;;24.67;15.60;;;;;;;11.82;100.00;99198.78;5045107;28;20116;-75
2024/03/30 09:21:57;;;;;;;24.52;15.77;;;;;;;11.83;100.00;99203.16;5043235;28;20033;-68
2024/03/30 09:24:23;;;;;;;24.20;15.82;;;;;;;11.91;100.00;99191.47;5044884;28;20376;-66
2024/03/30 09:26:48;;;;;;;23.70;14.93;;;;;;;11.92;100.00;99188.78;5046143;28;20499;-66
2024/03/30 09:29:14;;;;;;;23.83;15.63;;;;;;;11.95;100.00;99203.78;5043411;28;20055;-65
2024/03/30 09:31:39;;;;;;;24.65;15.80;;;;;;;11.95;100.00;99190.53;5046860;28;20075;-65
2024/03/30 09:34:04;;;;;;;24.25;15.40;;;;;;;12.02;100.00;99192.97;5043914;28;20041;-70
2024/03/30 09:36:29;;;;;;;23.65;15.05;;;;;;;12.08;100.00;99189.28;5046029;28;20048;-72
2024/03/30 09:38:55;;;;;;;24.30;15.40;;;;;;;12.03;100.00;99194.69;5045594;28;20033;-70
2024/03/30 09:41:22;;;;;;;24.65;15.73;;;;;;;12.07;100.00;99199.91;5045362;28;20037;-78
2024/03/30 09:43:51;;;;;;;24.00;15.23;;;;;;;12.15;100.00;99211.16;5045851;28;20033;-77
2024/03/30 09:46:16;;;;;;;23.38;14.75;;;;;;;12.23;100.00;99200.34;5043628;28;20472;-72
2024/03/30 09:48:45;;;;;;;24.23;15.38;;;;;;;12.27;100.00;99212.59;5046881;28;20044;-72
2024/03/30 09:51:13;;;;;;;23.27;14.75;;;;;;;12.26;100.00;99210.84;5039192;28;20030;-78
2024/03/30 09:53:39;;;;;;;24.27;14.93;;;;;;;12.35;100.00;99205.31;5046686;28;20025;-76
2024/03/30 09:56:05;;;;;;;23.35;14.75;;;;;;;12.35;100.00;99202.66;5043832;28;20047;-65
2024/03/30 09:58:33;;;;;;;24.05;15.18;;;;;;;12.24;100.00;99205.59;5045127;28;20025;-65
2024/03/30 10:00:59;;;;;;;24.88;14.93;;;;;;;12.21;100.00;99214.50;5043978;28;20048;-68
2024/03/30 10:03:25;;;;;;;23.85;15.15;;;;;;;12.30;100.00;99210.72;5044379;28;20021;-71
2024/03/30 10:05:53;;;;;;;24.95;15.25;;;;;;;12.37;100.00;99214.94;5045231;28;20387;-68
2024/03/30 10:08:24;;;;;;;24.83;14.80;;;;;;;12.37;100.00;99214.06;5043527;28;20025;-66
2024/03/30 10:10:56;;;;;;;25.27;15.00;;;;;;;12.51;100.00;99222.50;5045368;28;20033;-65
2024/03/30 10:13:28;;;;;;;25.10;14.75;;;;;;;12.88;100.00;99226.69;5043607;28;20495;-66
2024/03/30 10:15:55;;;;;;;23.52;13.57;;;;;;;13.19;100.00;99215.13;5044495;28;20061;-68
2024/03/30 10:18:22;;;;;;;24.08;12.88;;;;;;;13.47;100.00;99208.06;5043565;28;20100;-66
2024/03/30 10:20:47;;;;;;;23.55;12.52;;;;;;;13.82;100.00;99209.53;5045366;28;20025;-65
2024/03/30 10:23:13;;;;;;;23.40;12.38;;;;;;;13.92;100.00;99188.78;5041589;28;20046;-64
2024/03/30 10:25:50;;;;;;;24.17;12.25;;;;;;;14.15;100.00;99192.44;5045879;28;20028;-65
2024/03/30 10:28:17;;;;;;;23.50;11.90;;;;;;;14.36;100.00;99185.44;5039487;28;20025;-65
2024/03/30 10:30:42;;;;;;;23.13;11.65;;;;;;;14.58;100.00;99186.38;5045601;28;20067;-66
2024/03/30 10:33:12;;;;;;;23.45;11.35;;;;;;;14.70;100.00;99192.19;5040967;28;20392;-68
2024/03/30 10:35:37;;;;;;;23.30;11.23;;;;;;;14.61;100.00;99191.59;5045349;28;20021;-65
2024/03/30 10:38:02;;;;;;;22.33;11.10;;;;;;;14.67;100.00;99202.94;5042909;28;20030;-65
2024/03/30 10:40:29;;;;;;;22.67;10.73;;;;;;;14.57;100.00;99197.06;5042362;28;20488;-65
2024/03/30 10:42:57;;;;;;;24.95;10.82;;;;;;;14.89;100.00;99198.50;5044166;28;20472;-65
2024/03/30 10:45:24;;;;;;;23.13;11.20;;;;;;;15.05;100.00;99198.75;5042951;28;20112;-65
2024/03/30 10:47:54;;;;;;;22.65;10.05;;;;;;;15.01;100.00;99205.13;5043329;28;20033;-65
2024/03/30 10:50:20;;;;;;;24.00;10.38;;;;;;;14.96;100.00;99197.31;5042702;28;20041;-70
2024/03/30 10:52:45;;;;;;;23.17;10.07;;;;;;;14.84;100.00;99213.78;5044994;28;20025;-65
2024/03/30 10:55:11;;;;;;;23.90;10.18;;;;;;;14.63;100.00;99212.81;5041647;28;20036;-71
2024/03/30 10:57:38;;;;;;;24.08;10.05;;;;;;;14.91;100.00;99212.63;5045082;28;20031;-70
2024/03/30 11:00:07;;;;;;;24.75;10.30;;;;;;;15.24;100.00;99230.81;5042101;28;20063;-70
2024/03/30 11:02:33;;;;;;;23.67;8.50;;;;;;;15.03;100.00;99232.56;5043868;28;20026;-72
2024/03/30 11:05:00;;;;;;;23.27;8.40;;;;;;;14.82;100.00;99236.91;5043102;28;20029;-65
2024/03/30 11:07:27;;;;;;;24.35;8.45;;;;;;;14.73;100.00;99239.94;5042925;28;20104;-66
2024/03/30 11:09:53;;;;;;;24.85;8.15;;;;;;;14.92;100.00;99248.06;5043681;28;20116;-66
2024/03/30 11:12:18;;;;;;;25.80;7.90;;;;;;;14.88;100.00;99263.28;5042121;28;20092;-65
2024/03/30 11:14:43;;;;;;;25.58;7.25;;;;;;;14.79;100.00;99263.63;5044715;28;20021;-65
2024/03/30 11:17:30;;;;;;;24.17;7.53;;;;;;;14.97;100.00;99257.59;5041434;28;20041;-64
2024/03/30 11:20:17;;;;;;;23.40;7.60;;;;;;;14.83;100.00;99259.94;5039533;28;20029;-65